KPHN/PHN METAR and TAF weather

Enter ICAO airport designator
Station Type Date Time Source
KPHN METAR 2020/01/27 10:55 UTC NOAA

KPHN 271055Z AUTO 30004KT 10SM BKN016 OVC021 00/M02 A2979 RMK AO2


Station Type Date Time Source
KPHN Decoded METAR 2020/01/27 10:55 UTC NOAA

St. Clair County International, MI, United States (KPHN) 42-55N 082-32W
Jan 27, 2020 - 05:55 AM EST / 2020.01.27 1055 UTC
Wind: from the WNW (300 degrees) at 5 MPH (4 KT):0
Visibility: 10 mile(s):0
Sky conditions: overcast
Temperature: 32 F (0 C)
Windchill: 26 F (-3 C):1
Dew Point: 28 F (-2 C)
Relative Humidity: 86%
Pressure (altimeter): 29.79 in. Hg (1008 hPa)
ob: KPHN 271055Z AUTO 30004KT 10SM BKN016 OVC021 00/M02 A2979 RMK AO2
cycle: 11

Station Type Date Time Source
KPHN TAF UTC NOAA

Error!

Example: see airport list